Time;durP1;ratioP1;P1;durP2;ratioP2;P2;SDS_P1;SDS_P2;PMS_P1;PMS_P2;Temp;Humidity;BMP_temperature;BMP_pressure;BME280_temperature;BME280_humidity;BME280_pressure;Samples;Min_cycle;Max_cycle;Signal;HPM_P1;HPM_P2
2021/01/31 00:00:49;;;;;;;28.95;15.82;;;;;;;-3.20;63.62;94722.56;5087604;28;20052;-56
2021/01/31 00:03:22;;;;;;;35.78;17.67;;;;;;;-3.14;63.31;94731.28;5090499;28;20048;-57
2021/01/31 00:05:51;;;;;;;32.00;17.00;;;;;;;-3.13;63.26;94731.06;5088911;28;20048;-57
2021/01/31 00:08:21;;;;;;;30.90;15.63;;;;;;;-3.11;63.66;94734.25;5060572;28;20420;-56
2021/01/31 00:10:49;;;;;;;29.50;15.73;;;;;;;-3.10;61.97;94725.53;5086842;28;20419;-56
2021/01/31 00:13:18;;;;;;;27.40;14.93;;;;;;;-3.13;62.21;94723.34;5087326;28;20048;-57
2021/01/31 00:15:47;;;;;;;32.38;15.65;;;;;;;-3.13;62.58;94733.66;5086774;28;20063;-57
2021/01/31 00:18:18;;;;;;;27.92;15.07;;;;;;;-3.15;62.39;94733.06;5084861;28;20051;-57
2021/01/31 00:20:49;;;;;;;32.80;15.60;;;;;;;-3.23;62.49;94722.94;5085608;28;20058;-62
2021/01/31 00:23:16;;;;;;;27.00;16.02;;;;;;;-3.19;62.68;94736.22;5049931;28;20401;-57
2021/01/31 00:25:44;;;;;;;30.15;15.80;;;;;;;-3.17;62.86;94729.91;5083815;28;20051;-57
2021/01/31 00:28:13;;;;;;;26.25;14.43;;;;;;;-3.21;62.94;94733.84;5082035;28;20078;-63
2021/01/31 00:30:42;;;;;;;27.17;15.25;;;;;;;-3.26;63.05;94739.63;5083442;28;20074;-57
2021/01/31 00:33:37;;;;;;;24.95;13.38;;;;;;;-3.28;62.45;94740.81;5065331;28;20453;-56
2021/01/31 00:36:05;;;;;;;27.60;14.30;;;;;;;-3.27;62.63;94726.94;5062937;28;20064;-56
2021/01/31 00:38:32;;;;;;;33.03;17.70;;;;;;;-3.23;62.91;94730.69;5030238;28;20543;-56
2021/01/31 00:40:59;;;;;;;29.17;15.85;;;;;;;-3.19;62.98;94731.88;5063254;28;20523;-63
2021/01/31 00:43:26;;;;;;;27.08;15.00;;;;;;;-3.18;63.28;94736.03;5055685;28;20069;-57
2021/01/31 00:45:54;;;;;;;28.73;15.70;;;;;;;-3.19;63.82;94737.03;5046515;28;20060;-57
2021/01/31 00:48:22;;;;;;;29.33;14.07;;;;;;;-3.23;62.12;94742.78;5045479;28;20056;-56
2021/01/31 00:50:49;;;;;;;27.05;13.65;;;;;;;-3.27;62.59;94738.03;5055852;28;20052;-57
2021/01/31 00:53:21;;;;;;;28.67;17.40;;;;;;;-3.21;62.57;94733.84;5045984;28;20045;-57
2021/01/31 00:55:56;;;;;;;28.45;14.82;;;;;;;-3.13;63.46;94738.81;5030692;28;20057;-57
2021/01/31 00:58:35;;;;;;;29.75;13.90;;;;;;;-3.13;62.37;94733.66;5046374;28;20055;-57
2021/01/31 01:01:02;;;;;;;29.50;14.50;;;;;;;-3.17;62.07;94737.63;5019631;28;20551;-57
2021/01/31 01:03:30;;;;;;;30.50;14.93;;;;;;;-3.13;62.01;94730.28;5038656;28;20044;-58
2021/01/31 01:06:01;;;;;;;23.88;14.15;;;;;;;-3.16;62.55;94741.00;5047646;28;20052;-57
2021/01/31 01:08:29;;;;;;;28.98;15.52;;;;;;;-3.19;63.21;94724.13;5044698;28;20060;-57
2021/01/31 01:10:57;;;;;;;26.23;14.48;;;;;;;-3.12;63.08;94734.47;5029439;28;20509;-57
2021/01/31 01:13:25;;;;;;;27.10;14.52;;;;;;;-3.09;62.91;94734.06;5045113;28;20056;-57
2021/01/31 01:15:52;;;;;;;25.15;13.65;;;;;;;-3.03;62.05;94727.31;5045861;28;20107;-57
2021/01/31 01:18:20;;;;;;;24.88;13.15;;;;;;;-3.02;61.58;94723.75;5062907;28;20053;-57
2021/01/31 01:20:48;;;;;;;28.50;14.55;;;;;;;-3.01;62.63;94733.84;5064194;28;20136;-57
2021/01/31 01:23:16;;;;;;;23.40;13.90;;;;;;;-2.98;63.21;94728.31;5063740;28;20063;-67
2021/01/31 01:25:44;;;;;;;35.75;14.75;;;;;;;-2.96;62.78;94728.09;5039791;28;20056;-58
2021/01/31 01:28:14;;;;;;;25.05;14.75;;;;;;;-3.08;61.71;94730.50;5038932;28;20059;-57
2021/01/31 01:30:44;;;;;;;32.97;15.10;;;;;;;-3.10;62.66;94728.09;5063931;28;20056;-57
2021/01/31 01:33:12;;;;;;;27.77;13.65;;;;;;;-3.10;62.59;94722.94;5029873;28;20527;-59
2021/01/31 01:35:39;;;;;;;26.15;13.60;;;;;;;-3.11;62.65;94723.94;5063943;28;20064;-59
2021/01/31 01:38:06;;;;;;;22.20;12.75;;;;;;;-3.18;63.47;94709.44;5018141;28;20059;-57
2021/01/31 01:40:39;;;;;;;26.45;13.93;;;;;;;-3.13;63.50;94713.00;5063799;28;20056;-58
2021/01/31 01:43:18;;;;;;;26.17;13.57;;;;;;;-3.18;63.95;94705.09;5038996;28;20415;-61
2021/01/31 01:46:18;;;;;;;23.95;16.13;;;;;;;-3.23;62.17;94706.69;5038389;28;20387;-58
2021/01/31 01:48:48;;;;;;;27.15;14.18;;;;;;;-3.23;62.24;94722.94;5064645;28;20055;-57
2021/01/31 01:51:22;;;;;;;28.27;14.52;;;;;;;-3.18;62.95;94725.72;5021349;28;20052;-58
2021/01/31 01:53:49;;;;;;;20.63;13.35;;;;;;;-3.16;62.64;94723.75;5045902;28;20056;-57
2021/01/31 01:56:34;;;;;;;26.30;14.57;;;;;;;-3.24;62.72;94711.03;5062849;28;20036;-62
2021/01/31 01:59:02;;;;;;;28.13;15.50;;;;;;;-3.21;63.54;94709.88;5046629;28;20472;-56
2021/01/31 02:01:30;;;;;;;25.48;13.65;;;;;;;-3.22;63.36;94711.63;5045408;28;20074;-57
2021/01/31 02:04:00;;;;;;;26.45;14.32;;;;;;;-3.25;64.11;94712.84;5062766;28;20067;-56
2021/01/31 02:06:29;;;;;;;28.98;15.52;;;;;;;-3.26;65.32;94715.59;5027475;28;20079;-57
2021/01/31 02:08:59;;;;;;;27.15;14.35;;;;;;;-3.29;66.00;94726.31;5027549;28;20083;-57
2021/01/31 02:11:27;;;;;;;24.20;13.65;;;;;;;-3.30;65.74;94724.75;5045873;28;20036;-57
2021/01/31 02:13:59;;;;;;;27.38;15.57;;;;;;;-3.37;66.12;94726.50;5046024;28;20048;-56
2021/01/31 02:16:50;;;;;;;29.08;16.63;;;;;;;-3.41;66.24;94719.19;5063737;28;20049;-56
2021/01/31 02:19:31;;;;;;;28.17;14.38;;;;;;;-3.43;65.35;94718.59;5044861;28;20053;-58
2021/01/31 02:22:36;;;;;;;25.55;15.00;;;;;;;-3.38;64.44;94723.16;5063275;28;20056;-57
2021/01/31 02:25:06;;;;;;;23.20;11.85;;;;;;;-3.34;64.34;94726.94;5064497;28;20048;-57
2021/01/31 02:28:01;;;;;;;29.90;15.32;;;;;;;-3.30;64.57;94730.69;5064754;28;20060;-57
2021/01/31 02:30:47;;;;;;;24.45;13.18;;;;;;;-3.39;64.75;94737.03;5044795;28;20055;-57
2021/01/31 02:33:38;;;;;;;22.10;13.07;;;;;;;-3.38;64.48;94730.09;5037229;28;20048;-57
2021/01/31 02:36:23;;;;;;;28.92;16.70;;;;;;;-3.31;64.85;94731.66;5062948;28;20053;-57
2021/01/31 02:39:33;;;;;;;24.00;13.40;;;;;;;-3.31;64.31;94731.66;5011884;28;20048;-57
2021/01/31 02:42:34;;;;;;;28.92;15.30;;;;;;;-3.26;65.46;94734.47;4983556;28;20056;-57
2021/01/31 02:45:25;;;;;;;22.15;12.27;;;;;;;-3.27;65.44;94734.66;5029378;28;20072;-57
2021/01/31 02:48:28;;;;;;;23.40;13.17;;;;;;;-3.26;65.21;94733.66;5063746;28;20060;-60
2021/01/31 02:51:03;;;;;;;26.13;13.98;;;;;;;-3.28;64.66;94728.69;5057703;28;20589;-57
2021/01/31 02:53:55;;;;;;;21.70;13.20;;;;;;;-3.30;64.94;94733.25;5056786;28;20051;-56
2021/01/31 02:57:04;;;;;;;24.60;12.52;;;;;;;-3.43;65.61;94723.75;5066199;28;20060;-57
2021/01/31 03:00:07;;;;;;;24.88;13.77;;;;;;;-3.35;65.33;94737.41;4950971;28;20049;-57
2021/01/31 03:02:40;;;;;;;21.85;11.70;;;;;;;-3.36;65.45;94733.25;5041081;28;20048;-58
2021/01/31 03:05:16;;;;;;;20.38;11.48;;;;;;;-3.37;65.54;94744.56;5047192;28;20413;-57
2021/01/31 03:08:13;;;;;;;25.92;12.90;;;;;;;-3.41;66.30;94751.91;5048837;28;20048;-64
2021/01/31 03:10:46;;;;;;;19.30;10.68;;;;;;;-3.48;65.83;94744.16;5067200;28;20110;-57
2021/01/31 03:13:22;;;;;;;19.42;11.32;;;;;;;-3.49;65.69;94750.28;5066467;28;20063;-57
2021/01/31 03:16:02;;;;;;;18.67;11.60;;;;;;;-3.42;65.03;94751.13;5048688;28;20040;-60
2021/01/31 03:18:39;;;;;;;16.63;11.05;;;;;;;-3.41;65.53;94751.91;5065657;28;20063;-57
2021/01/31 03:21:16;;;;;;;19.83;10.65;;;;;;;-3.38;64.60;94756.66;5048620;28;20325;-58
2021/01/31 03:23:56;;;;;;;21.65;11.40;;;;;;;-3.33;64.23;94761.22;5066760;28;20506;-59
2021/01/31 03:26:34;;;;;;;17.25;10.27;;;;;;;-3.35;64.74;94758.84;5067660;28;20048;-57
2021/01/31 03:29:02;;;;;;;19.38;10.45;;;;;;;-3.34;64.70;94754.47;5068688;28;20053;-58
2021/01/31 03:31:33;;;;;;;19.83;10.88;;;;;;;-3.34;64.61;94762.22;5005354;28;20051;-57
2021/01/31 03:34:10;;;;;;;16.40;8.90;;;;;;;-3.36;64.15;94770.16;5087989;28;20137;-62
2021/01/31 03:36:42;;;;;;;17.17;12.55;;;;;;;-3.40;64.68;94758.63;5103076;28;20646;-58
2021/01/31 03:39:11;;;;;;;18.67;10.20;;;;;;;-3.40;65.58;94763.78;5082586;28;20774;-58
2021/01/31 03:41:38;;;;;;;21.35;11.25;;;;;;;-3.41;65.52;94765.59;5077493;28;20591;-57
2021/01/31 03:44:05;;;;;;;18.15;11.13;;;;;;;-3.37;65.33;94772.91;5084723;28;20052;-57
2021/01/31 03:46:43;;;;;;;23.73;12.00;;;;;;;-3.37;64.71;94765.19;5071469;28;20052;-57
2021/01/31 03:49:34;;;;;;;17.17;9.55;;;;;;;-3.33;64.98;94766.38;5084521;28;20052;-57
2021/01/31 03:52:01;;;;;;;20.67;11.40;;;;;;;-3.35;65.49;94766.59;5073525;28;20086;-57
2021/01/31 03:54:28;;;;;;;19.52;10.52;;;;;;;-3.35;65.28;94782.06;5058159;28;20052;-57
2021/01/31 03:57:01;;;;;;;17.80;10.32;;;;;;;-3.35;65.55;94778.69;5083398;28;20051;-57
2021/01/31 03:59:34;;;;;;;17.67;9.80;;;;;;;-3.32;65.79;94780.88;5085030;28;20059;-57
2021/01/31 04:02:07;;;;;;;17.67;8.82;;;;;;;-3.30;65.17;94784.06;5087106;28;20044;-57
2021/01/31 04:04:42;;;;;;;16.23;9.00;;;;;;;-3.29;64.98;94783.06;5083929;28;20075;-57
2021/01/31 04:07:10;;;;;;;14.00;7.97;;;;;;;-3.29;64.68;94788.22;5086212;28;20055;-57
2021/01/31 04:09:39;;;;;;;17.27;10.30;;;;;;;-3.39;66.00;94783.44;5099413;28;20059;-59
2021/01/31 04:12:09;;;;;;;16.70;10.75;;;;;;;-3.36;65.60;94789.97;5100910;28;20055;-59
2021/01/31 04:14:52;;;;;;;14.27;9.27;;;;;;;-3.30;65.83;94782.25;5085891;28;20086;-59
2021/01/31 04:17:20;;;;;;;17.52;10.05;;;;;;;-3.34;65.69;94791.38;5076802;28;20043;-58
2021/01/31 04:19:47;;;;;;;22.42;10.48;;;;;;;-3.31;64.98;94787.63;5086807;28;20056;-58
2021/01/31 04:22:14;;;;;;;16.42;9.27;;;;;;;-3.32;64.90;94799.69;5086775;28;20055;-57
2021/01/31 04:24:42;;;;;;;17.95;9.43;;;;;;;-3.31;65.40;94801.28;5078568;28;20044;-57
2021/01/31 04:27:10;;;;;;;20.38;10.63;;;;;;;-3.26;65.52;94792.97;5087173;28;20056;-57
2021/01/31 04:29:37;;;;;;;15.63;9.50;;;;;;;-3.26;65.32;94796.34;5087769;28;20044;-57
2021/01/31 04:32:04;;;;;;;18.35;9.77;;;;;;;-3.22;65.97;94801.13;5068112;28;20063;-57
2021/01/31 04:34:33;;;;;;;16.98;10.63;;;;;;;-3.18;65.58;94805.69;5086018;28;20384;-57
2021/01/31 04:37:00;;;;;;;17.95;10.02;;;;;;;-3.19;66.23;94814.41;5085102;28;20055;-57
2021/01/31 04:39:27;;;;;;;22.10;11.40;;;;;;;-3.22;66.54;94812.22;5086232;28;20056;-57
2021/01/31 04:41:55;;;;;;;19.67;9.88;;;;;;;-3.28;66.70;94813.03;5083161;28;20063;-57
2021/01/31 04:44:22;;;;;;;16.88;9.95;;;;;;;-3.30;66.15;94812.41;5085347;28;20052;-57
2021/01/31 04:47:04;;;;;;;18.17;10.45;;;;;;;-3.30;66.62;94818.34;5074294;28;20503;-61
2021/01/31 04:50:08;;;;;;;17.00;10.40;;;;;;;-3.33;66.03;94821.34;5066142;28;20078;-58
2021/01/31 04:52:48;;;;;;;16.23;9.13;;;;;;;-3.33;65.86;94815.38;5073965;28;20307;-58
2021/01/31 04:55:32;;;;;;;18.77;11.80;;;;;;;-3.29;66.69;94819.16;5084047;28;20040;-57
2021/01/31 04:58:12;;;;;;;18.13;10.30;;;;;;;-3.42;66.90;94815.56;5081996;28;20412;-59
2021/01/31 05:00:56;;;;;;;17.48;11.35;;;;;;;-3.44;67.43;94814.97;5080670;28;20559;-57
2021/01/31 05:03:27;;;;;;;22.13;12.23;;;;;;;-3.50;68.19;94809.78;5083509;28;20056;-58
2021/01/31 05:06:05;;;;;;;19.65;10.60;;;;;;;-3.51;67.13;94831.41;5057489;28;20527;-57
2021/01/31 05:08:33;;;;;;;16.23;10.48;;;;;;;-3.51;67.54;94829.63;5084116;28;20044;-56
2021/01/31 05:11:27;;;;;;;17.38;9.98;;;;;;;-3.42;67.07;94825.88;5084712;28;20060;-56
2021/01/31 05:14:02;;;;;;;18.08;11.20;;;;;;;-3.37;66.41;94833.03;5081187;28;20415;-57
2021/01/31 05:16:29;;;;;;;18.25;9.68;;;;;;;-3.34;66.17;94824.09;5084052;28;20059;-57
2021/01/31 05:19:01;;;;;;;20.75;11.18;;;;;;;-3.35;66.51;94828.47;5084354;28;20048;-57
2021/01/31 05:21:31;;;;;;;20.52;11.45;;;;;;;-3.47;67.39;94830.81;5081323;28;20056;-58
2021/01/31 05:24:17;;;;;;;18.20;11.18;;;;;;;-3.47;67.64;94840.34;5066319;28;20075;-56
2021/01/31 05:27:03;;;;;;;22.55;10.57;;;;;;;-3.45;67.30;94844.31;5084220;28;20451;-57
2021/01/31 05:29:39;;;;;;;16.83;9.93;;;;;;;-3.46;66.70;94845.31;5072672;28;20044;-57
2021/01/31 05:32:12;;;;;;;15.68;9.07;;;;;;;-3.45;67.12;94849.47;5071363;28;20398;-58
2021/01/31 05:34:45;;;;;;;19.65;9.55;;;;;;;-3.45;66.83;94846.13;5063426;28;20049;-57
2021/01/31 05:37:15;;;;;;;17.35;9.95;;;;;;;-3.49;66.99;94844.91;5064037;28;20049;-57
2021/01/31 05:39:46;;;;;;;15.95;10.43;;;;;;;-3.52;67.36;94848.66;5045026;28;20036;-57
2021/01/31 05:42:22;;;;;;;15.73;10.23;;;;;;;-3.58;67.16;94850.25;5065034;28;20045;-57
2021/01/31 05:45:20;;;;;;;20.73;10.98;;;;;;;-3.58;66.79;94850.25;5048817;28;20723;-57
2021/01/31 05:47:50;;;;;;;36.00;16.25;;;;;;;-3.55;67.00;94859.34;5067107;28;20045;-58
2021/01/31 05:50:29;;;;;;;41.60;24.13;;;;;;;-3.58;67.39;94863.13;5054857;28;20051;-57
2021/01/31 05:52:57;;;;;;;30.42;17.95;;;;;;;-3.60;66.96;94861.72;5051043;28;20052;-57
2021/01/31 05:55:28;;;;;;;41.10;21.45;;;;;;;-3.63;67.42;94869.84;5052885;28;21110;-56
2021/01/31 05:58:17;;;;;;;29.08;14.95;;;;;;;-3.73;66.68;94878.72;5069360;28;20053;-57
2021/01/31 06:00:46;;;;;;;21.80;11.85;;;;;;;-3.78;66.20;94886.25;5045818;28;20060;-57
2021/01/31 06:03:21;;;;;;;36.20;19.02;;;;;;;-3.98;67.07;94880.97;5034622;28;20052;-57
2021/01/31 06:05:48;;;;;;;71.20;38.13;;;;;;;-3.97;67.26;94889.50;5068537;28;20048;-57
2021/01/31 06:08:30;;;;;;;91.68;39.67;;;;;;;-4.02;67.80;94902.94;5069100;28;20285;-60
2021/01/31 06:11:19;;;;;;;99.90;49.28;;;;;;;-4.02;68.67;94901.19;5040176;28;20045;-57
2021/01/31 06:13:59;;;;;;;97.72;48.85;;;;;;;-4.11;68.27;94889.41;5050412;28;20048;-57
2021/01/31 06:16:27;;;;;;;30.40;15.13;;;;;;;-4.11;69.10;94904.09;5038517;28;20059;-56
2021/01/31 06:19:09;;;;;;;81.75;39.78;;;;;;;-4.11;69.06;94897.13;5065079;28;20059;-56
2021/01/31 06:21:42;;;;;;;53.15;28.88;;;;;;;-4.09;69.12;94910.63;5050953;28;20052;-56
2021/01/31 06:24:36;;;;;;;54.63;27.98;;;;;;;-4.09;69.10;94917.56;5029843;28;20052;-56
2021/01/31 06:27:05;;;;;;;39.67;19.92;;;;;;;-4.12;68.80;94923.88;5006330;28;20059;-56
2021/01/31 06:29:45;;;;;;;31.98;18.00;;;;;;;-4.15;68.91;94924.28;5039241;28;20056;-61
2021/01/31 06:32:27;;;;;;;29.52;16.00;;;;;;;-4.23;69.46;94908.94;5068176;28;20047;-57
2021/01/31 06:35:01;;;;;;;32.85;18.95;;;;;;;-4.17;69.36;94923.66;5056102;28;20047;-57
2021/01/31 06:37:37;;;;;;;30.50;19.50;;;;;;;-4.20;69.71;94929.19;5049632;28;20055;-56
2021/01/31 06:40:13;;;;;;;26.42;16.45;;;;;;;-4.20;69.45;94931.75;5067804;28;20052;-57
2021/01/31 06:42:46;;;;;;;25.20;17.75;;;;;;;-4.19;69.92;94935.91;5022191;28;20063;-56
2021/01/31 06:45:16;;;;;;;29.30;16.83;;;;;;;-4.16;69.67;94938.13;5067529;28;20048;-57
2021/01/31 06:48:11;;;;;;;24.20;14.48;;;;;;;-4.15;69.69;94941.50;5067505;28;20060;-60
2021/01/31 06:51:16;;;;;;;21.23;12.63;;;;;;;-4.13;70.06;94945.50;5038032;28;20259;-57
2021/01/31 06:54:02;;;;;;;23.67;13.07;;;;;;;-4.17;70.48;94939.88;5046672;28;20052;-56
2021/01/31 06:56:46;;;;;;;22.90;12.48;;;;;;;-4.22;70.46;94951.75;5030081;28;20048;-57
2021/01/31 06:59:38;;;;;;;18.83;13.00;;;;;;;-4.26;70.08;94946.16;5031826;28;20400;-58
2021/01/31 07:02:50;;;;;;;19.92;12.02;;;;;;;-4.26;70.28;94946.16;5036897;28;20056;-58
2021/01/31 07:05:45;;;;;;;20.75;11.77;;;;;;;-4.25;69.85;94952.13;5041379;28;20048;-60
2021/01/31 07:08:31;;;;;;;20.45;12.85;;;;;;;-4.24;70.22;94951.94;5068697;28;20419;-57
2021/01/31 07:11:14;;;;;;;23.77;13.32;;;;;;;-4.22;70.50;94951.75;5066568;28;20052;-57
2021/01/31 07:14:16;;;;;;;24.63;14.50;;;;;;;-4.26;70.56;94953.13;5067064;28;20064;-57
2021/01/31 07:16:50;;;;;;;21.55;12.20;;;;;;;-4.22;70.73;94946.59;5067043;28;20068;-57
2021/01/31 07:19:30;;;;;;;20.27;11.10;;;;;;;-4.19;70.65;94956.53;5049208;28;20528;-57
2021/01/31 07:22:07;;;;;;;27.85;13.85;;;;;;;-4.10;70.72;94946.88;5038225;28;20616;-57
2021/01/31 07:24:45;;;;;;;24.13;12.77;;;;;;;-4.04;69.65;94948.69;5064677;28;20374;-57
2021/01/31 07:27:25;;;;;;;21.40;12.32;;;;;;;-3.93;69.27;94955.91;5025020;28;20056;-57
2021/01/31 07:30:23;;;;;;;22.48;12.82;;;;;;;-3.92;69.10;94952.34;5050968;28;20048;-58
2021/01/31 07:32:59;;;;;;;22.27;12.68;;;;;;;-3.86;68.64;94953.38;5078779;28;20052;-57
2021/01/31 07:35:34;;;;;;;25.13;13.60;;;;;;;-3.81;68.68;94947.63;5088357;28;20048;-58
2021/01/31 07:38:28;;;;;;;25.80;13.85;;;;;;;-3.75;67.59;94945.09;5084685;28;20044;-58
2021/01/31 07:40:56;;;;;;;23.05;16.25;;;;;;;-3.73;67.70;94945.72;5026068;28;20536;-58
2021/01/31 07:43:30;;;;;;;34.33;18.90;;;;;;;-3.63;66.87;94945.38;5085030;28;20070;-56
2021/01/31 07:46:04;;;;;;;29.80;16.27;;;;;;;-3.53;67.37;94949.38;5053380;28;20040;-57
2021/01/31 07:48:53;;;;;;;39.70;20.08;;;;;;;-3.41;66.52;94942.69;5088653;28;20052;-63
2021/01/31 07:51:26;;;;;;;36.95;20.80;;;;;;;-3.31;65.48;94943.13;5072022;28;20064;-64
2021/01/31 07:53:55;;;;;;;28.08;14.88;;;;;;;-3.18;64.55;94941.59;5090262;28;20052;-61
2021/01/31 07:56:34;;;;;;;20.48;11.02;;;;;;;-3.06;62.93;94939.25;5090993;28;20040;-57
2021/01/31 07:59:08;;;;;;;24.90;11.70;;;;;;;-2.99;63.41;94950.38;5087863;28;20052;-56
2021/01/31 08:01:41;;;;;;;16.23;9.00;;;;;;;-3.01;62.30;94942.03;5058384;28;20078;-57
2021/01/31 08:04:17;;;;;;;21.23;11.40;;;;;;;-3.02;63.09;94946.41;5096113;28;20044;-72
2021/01/31 08:06:54;;;;;;;16.45;9.98;;;;;;;-2.96;62.60;94945.66;5088538;28;20052;-57
2021/01/31 08:09:24;;;;;;;18.50;10.52;;;;;;;-2.91;61.91;94942.47;5074728;28;20059;-56
2021/01/31 08:11:58;;;;;;;18.50;11.35;;;;;;;-2.89;62.06;94945.63;5077536;28;20979;-64
2021/01/31 08:15:00;;;;;;;16.23;9.95;;;;;;;-2.90;61.80;94946.66;5084575;28;20048;-61
2021/01/31 08:17:56;;;;;;;19.35;10.18;;;;;;;-2.88;60.92;94947.22;5087171;28;20071;-57
2021/01/31 08:20:26;;;;;;;33.73;19.53;;;;;;;-2.85;61.71;94958.97;5109952;28;20048;-60
2021/01/31 08:22:55;;;;;;;62.78;30.08;;;;;;;-2.82;61.78;94961.13;5081064;28;20051;-57
2021/01/31 08:25:25;;;;;;;54.75;28.35;;;;;;;-2.83;61.44;94960.34;5105483;28;20060;-64
2021/01/31 08:28:02;;;;;;;37.10;18.02;;;;;;;-2.68;61.33;94967.16;5088027;28;20044;-59
2021/01/31 08:30:33;;;;;;;35.03;18.55;;;;;;;-2.58;61.66;94959.00;5088348;28;20397;-59
2021/01/31 08:33:00;;;;;;;34.17;18.48;;;;;;;-2.55;60.83;94964.59;5088087;28;20051;-63
2021/01/31 08:35:31;;;;;;;24.98;14.88;;;;;;;-2.51;61.04;94970.16;5088980;28;20460;-62
2021/01/31 08:38:20;;;;;;;19.40;11.00;;;;;;;-2.36;61.05;94962.22;5076184;28;20072;-57
2021/01/31 08:40:59;;;;;;;19.25;11.82;;;;;;;-2.29;60.13;94955.28;5086818;28;20817;-58
2021/01/31 08:43:40;;;;;;;17.02;11.20;;;;;;;-2.21;60.21;94962.81;5088000;28;20403;-59
2021/01/31 08:46:28;;;;;;;21.15;12.43;;;;;;;-2.07;59.31;94952.47;5087121;28;20044;-57
2021/01/31 08:48:57;;;;;;;21.92;11.85;;;;;;;-1.98;59.36;94963.41;5073205;28;20055;-56
2021/01/31 08:51:30;;;;;;;22.70;13.45;;;;;;;-1.88;59.36;94961.22;5086161;28;20059;-56
2021/01/31 08:54:12;;;;;;;24.25;14.50;;;;;;;-1.81;59.13;94961.97;5073432;28;20522;-56
2021/01/31 08:56:58;;;;;;;22.95;13.20;;;;;;;-1.70;58.33;94953.63;5074765;28;20055;-58
2021/01/31 08:59:37;;;;;;;23.60;14.95;;;;;;;-1.53;57.80;94962.72;5087161;28;20047;-58
2021/01/31 09:02:14;;;;;;;24.35;13.00;;;;;;;-1.41;57.05;94961.91;5085764;28;20436;-57
2021/01/31 09:04:50;;;;;;;23.17;13.70;;;;;;;-1.46;56.26;94961.72;5045364;28;20051;-61
2021/01/31 09:07:21;;;;;;;18.58;11.95;;;;;;;-1.44;57.37;94962.31;5078253;28;20047;-57
2021/01/31 09:09:53;;;;;;;18.92;10.65;;;;;;;-1.38;56.33;94963.28;5062204;28;20079;-57
2021/01/31 09:12:23;;;;;;;25.90;15.15;;;;;;;-1.38;56.51;94965.88;5083216;28;20047;-58
2021/01/31 09:14:52;;;;;;;18.92;11.73;;;;;;;-1.32;56.82;94975.41;5072413;28;20055;-57
2021/01/31 09:17:25;;;;;;;23.25;11.85;;;;;;;-1.28;56.55;94965.44;5056594;28;20404;-57
2021/01/31 09:20:13;;;;;;;22.20;12.55;;;;;;;-1.16;56.01;94978.53;5066084;28;20059;-57
2021/01/31 09:22:44;;;;;;;21.42;12.52;;;;;;;-1.11;55.81;94978.72;5072080;28;20543;-57
2021/01/31 09:25:15;;;;;;;21.35;12.77;;;;;;;-1.10;55.27;94980.31;5100225;28;20427;-58
2021/01/31 09:28:10;;;;;;;22.65;13.35;;;;;;;-1.11;55.34;94978.72;5038855;28;20432;-57
2021/01/31 09:30:40;;;;;;;21.08;13.93;;;;;;;-1.16;56.17;94981.13;5099111;28;20047;-58
2021/01/31 09:33:28;;;;;;;22.92;13.77;;;;;;;-1.11;55.20;94974.31;5063710;28;20048;-57
2021/01/31 09:35:55;;;;;;;23.95;14.45;;;;;;;-1.10;55.45;94980.31;5043793;28;20052;-57
2021/01/31 09:38:30;;;;;;;22.27;13.93;;;;;;;-1.04;55.60;94970.94;5062187;28;20074;-58
2021/01/31 09:41:00;;;;;;;22.92;13.15;;;;;;;-0.99;55.73;94981.47;5047430;28;20413;-58
2021/01/31 09:43:30;;;;;;;22.40;15.02;;;;;;;-0.98;56.07;94978.66;5062837;28;20052;-57
2021/01/31 09:46:06;;;;;;;23.80;14.27;;;;;;;-0.95;56.40;94975.66;5063414;28;20055;-59
2021/01/31 09:48:35;;;;;;;24.83;15.27;;;;;;;-0.84;56.16;94989.75;5045141;28;20055;-57
2021/01/31 09:51:05;;;;;;;23.90;14.88;;;;;;;-0.83;55.39;94978.38;5029537;28;20063;-56
2021/01/31 09:53:40;;;;;;;24.65;15.07;;;;;;;-0.79;56.43;94986.53;5010925;28;20048;-57
2021/01/31 09:56:30;;;;;;;;;;;;;;;-0.74;55.53;94985.94;5046120;28;20528;-57
2021/01/31 09:58:58;;;;;;;25.70;16.00;;;;;;;-0.68;54.84;94983.31;5063266;28;20419;-58
2021/01/31 10:01:28;;;;;;;26.05;14.82;;;;;;;-0.71;55.28;94982.91;5045519;28;20041;-57
2021/01/31 10:04:00;;;;;;;27.02;14.50;;;;;;;-0.70;55.41;94987.91;5060703;28;20041;-57
2021/01/31 10:06:39;;;;;;;24.08;14.70;;;;;;;-0.72;55.05;94984.72;5061091;28;20049;-57
2021/01/31 10:09:07;;;;;;;19.00;12.68;;;;;;;-0.64;55.22;94981.09;5045468;28;20048;-58
2021/01/31 10:11:41;;;;;;;22.17;13.20;;;;;;;-0.65;54.83;94971.75;5019859;28;20048;-57
2021/01/31 10:14:12;;;;;;;24.60;13.70;;;;;;;-0.64;54.66;94965.56;5062102;28;20063;-58
2021/01/31 10:16:42;;;;;;;23.73;13.70;;;;;;;-0.58;53.30;94972.47;5062206;28;20218;-59
2021/01/31 10:19:22;;;;;;;20.80;12.77;;;;;;;-0.63;54.20;94975.69;5036409;28;20425;-58
2021/01/31 10:21:55;;;;;;;25.35;13.90;;;;;;;-0.60;53.94;94976.28;5028416;28;20057;-58
2021/01/31 10:24:29;;;;;;;24.15;14.70;;;;;;;-0.62;53.98;94972.09;5043439;28;20049;-59
2021/01/31 10:27:18;;;;;;;22.17;13.55;;;;;;;-0.63;54.09;94975.69;5035662;28;20052;-56
2021/01/31 10:29:46;;;;;;;23.85;14.07;;;;;;;-0.69;53.76;94973.97;5062097;28;20049;-57
2021/01/31 10:32:35;;;;;;;25.77;15.70;;;;;;;-0.65;54.36;94976.91;5062665;28;20498;-57
2021/01/31 10:35:19;;;;;;;26.67;15.88;;;;;;;-0.63;54.46;94977.50;5052806;28;20487;-57
2021/01/31 10:37:47;;;;;;;24.08;13.77;;;;;;;-0.68;54.68;94969.56;5042716;28;20485;-57
2021/01/31 10:40:15;;;;;;;27.77;15.35;;;;;;;-0.67;55.03;94974.50;5062821;28;20044;-59
2021/01/31 10:42:42;;;;;;;28.98;15.60;;;;;;;-0.68;55.36;94972.97;5052715;28;20048;-58
2021/01/31 10:45:21;;;;;;;25.23;15.38;;;;;;;-0.65;54.91;94974.31;5044041;28;20060;-58
2021/01/31 10:47:49;;;;;;;24.95;15.35;;;;;;;-0.64;54.63;94971.50;5018929;28;20044;-57
2021/01/31 10:50:19;;;;;;;24.08;15.15;;;;;;;-0.63;53.94;94970.53;5011456;28;20710;-59
2021/01/31 10:52:48;;;;;;;23.25;15.68;;;;;;;-0.69;53.99;94971.38;5061808;28;20049;-57
2021/01/31 10:55:16;;;;;;;26.92;16.02;;;;;;;-0.65;53.47;94979.50;5062085;28;20155;-56
2021/01/31 10:57:44;;;;;;;27.58;15.90;;;;;;;-0.64;54.18;94973.31;5062104;28;20053;-59
2021/01/31 11:00:12;;;;;;;26.00;15.10;;;;;;;-0.58;52.79;94972.47;5062085;28;20390;-61
2021/01/31 11:02:40;;;;;;;26.25;15.65;;;;;;;-0.53;52.93;94974.44;5062493;28;20048;-59
2021/01/31 11:05:08;;;;;;;24.88;14.70;;;;;;;-0.49;51.92;94975.63;5043318;28;20064;-60
2021/01/31 11:07:35;;;;;;;32.50;15.93;;;;;;;-0.48;51.85;94972.03;5043897;28;20079;-60
2021/01/31 11:10:04;;;;;;;25.83;15.02;;;;;;;-0.54;52.09;94978.03;5021540;28;20080;-59
2021/01/31 11:12:32;;;;;;;28.17;15.20;;;;;;;-0.45;52.00;94971.63;5064797;28;20068;-56
2021/01/31 11:14:59;;;;;;;23.90;15.00;;;;;;;-0.44;51.91;94972.41;5046481;28;20063;-57
2021/01/31 11:17:27;;;;;;;30.33;15.40;;;;;;;-0.49;51.60;94963.44;5030836;28;20052;-58
2021/01/31 11:19:54;;;;;;;25.25;15.75;;;;;;;-0.48;52.12;94966.84;5065983;28;20060;-59
2021/01/31 11:22:21;;;;;;;24.60;15.93;;;;;;;-0.51;52.68;94967.25;5048074;28;20064;-59
2021/01/31 11:24:49;;;;;;;27.65;16.70;;;;;;;-0.47;53.15;94974.41;5068175;28;20048;-57
2021/01/31 11:27:17;;;;;;;28.35;15.20;;;;;;;-0.44;54.18;94977.59;5034381;28;20044;-58
2021/01/31 11:29:44;;;;;;;29.05;16.52;;;;;;;-0.43;52.36;94971.41;5048817;28;20036;-58
2021/01/31 11:32:11;;;;;;;28.08;14.93;;;;;;;-0.45;53.42;94974.22;5061322;28;20059;-57
2021/01/31 11:34:39;;;;;;;25.35;15.73;;;;;;;-0.45;52.99;94963.84;5068592;28;20078;-58
2021/01/31 11:37:06;;;;;;;26.92;14.05;;;;;;;-0.44;52.23;94962.84;5085531;28;20056;-56
2021/01/31 11:39:33;;;;;;;28.45;15.85;;;;;;;-0.49;52.30;94958.28;5067687;28;20508;-57
2021/01/31 11:42:01;;;;;;;28.17;17.75;;;;;;;-0.44;54.31;94962.03;5090128;28;20059;-57
2021/01/31 11:44:28;;;;;;;28.65;16.60;;;;;;;-0.44;54.31;94951.66;5085814;28;20052;-57
2021/01/31 11:46:55;;;;;;;31.80;17.13;;;;;;;-0.46;53.78;94959.66;5084463;28;20071;-57
2021/01/31 11:49:22;;;;;;;25.27;14.88;;;;;;;-0.45;54.13;94955.25;5086955;28;20052;-57
2021/01/31 11:51:50;;;;;;;24.20;15.13;;;;;;;-0.45;53.14;94947.50;5101842;28;20398;-57
2021/01/31 11:54:17;;;;;;;27.58;16.00;;;;;;;-0.50;53.81;94951.53;5066734;28;20076;-58
2021/01/31 11:56:44;;;;;;;26.83;15.35;;;;;;;-0.49;54.16;94947.91;5081437;28;20528;-57